sensor_id;sensor_type;location;lat;lon;timestamp;P1;durP1;ratioP1;P2;durP2;ratioP2
2488;SDS011;1255;48.716;9.124;2022-12-07T00:01:52;5.18;;;4.18;;
2488;SDS011;1255;48.716;9.124;2022-12-07T00:04:19;5.70;;;4.25;;
2488;SDS011;1255;48.716;9.124;2022-12-07T00:06:46;7.70;;;3.90;;
2488;SDS011;1255;48.716;9.124;2022-12-07T00:09:16;4.45;;;3.67;;
2488;SDS011;1255;48.716;9.124;2022-12-07T00:11:47;5.22;;;3.78;;
2488;SDS011;1255;48.716;9.124;2022-12-07T00:14:15;6.70;;;4.18;;
2488;SDS011;1255;48.716;9.124;2022-12-07T00:16:43;5.50;;;4.22;;
2488;SDS011;1255;48.716;9.124;2022-12-07T00:19:10;5.53;;;3.97;;
2488;SDS011;1255;48.716;9.124;2022-12-07T00:21:39;5.00;;;4.10;;
2488;SDS011;1255;48.716;9.124;2022-12-07T00:24:06;6.07;;;4.70;;
2488;SDS011;1255;48.716;9.124;2022-12-07T00:26:34;6.25;;;4.70;;
2488;SDS011;1255;48.716;9.124;2022-12-07T00:29:04;5.60;;;3.75;;
2488;SDS011;1255;48.716;9.124;2022-12-07T00:31:34;5.78;;;3.63;;
2488;SDS011;1255;48.716;9.124;2022-12-07T00:34:03;5.50;;;4.45;;
2488;SDS011;1255;48.716;9.124;2022-12-07T00:36:30;6.97;;;4.20;;
2488;SDS011;1255;48.716;9.124;2022-12-07T00:38:58;5.20;;;3.70;;
2488;SDS011;1255;48.716;9.124;2022-12-07T00:41:26;5.53;;;3.70;;
2488;SDS011;1255;48.716;9.124;2022-12-07T00:43:54;6.50;;;4.78;;
2488;SDS011;1255;48.716;9.124;2022-12-07T00:46:22;5.65;;;4.07;;
2488;SDS011;1255;48.716;9.124;2022-12-07T00:48:50;8.63;;;5.25;;
2488;SDS011;1255;48.716;9.124;2022-12-07T00:51:19;5.40;;;4.05;;
2488;SDS011;1255;48.716;9.124;2022-12-07T00:53:47;6.07;;;4.43;;
2488;SDS011;1255;48.716;9.124;2022-12-07T00:56:18;5.18;;;4.28;;
2488;SDS011;1255;48.716;9.124;2022-12-07T00:58:49;5.25;;;4.30;;
2488;SDS011;1255;48.716;9.124;2022-12-07T01:01:16;5.97;;;4.32;;
2488;SDS011;1255;48.716;9.124;2022-12-07T01:03:45;7.10;;;3.55;;
2488;SDS011;1255;48.716;9.124;2022-12-07T01:06:13;5.38;;;4.60;;
2488;SDS011;1255;48.716;9.124;2022-12-07T01:08:41;6.13;;;4.53;;
2488;SDS011;1255;48.716;9.124;2022-12-07T01:11:09;7.25;;;4.18;;
2488;SDS011;1255;48.716;9.124;2022-12-07T01:13:39;4.10;;;3.60;;
2488;SDS011;1255;48.716;9.124;2022-12-07T01:16:07;7.00;;;4.68;;
2488;SDS011;1255;48.716;9.124;2022-12-07T01:18:35;4.72;;;3.80;;
2488;SDS011;1255;48.716;9.124;2022-12-07T01:21:05;5.53;;;3.83;;
2488;SDS011;1255;48.716;9.124;2022-12-07T01:23:33;4.28;;;3.80;;
2488;SDS011;1255;48.716;9.124;2022-12-07T01:26:03;5.80;;;4.10;;
2488;SDS011;1255;48.716;9.124;2022-12-07T01:28:31;4.72;;;3.85;;
2488;SDS011;1255;48.716;9.124;2022-12-07T01:30:58;7.07;;;5.35;;
2488;SDS011;1255;48.716;9.124;2022-12-07T01:33:27;5.45;;;4.00;;
2488;SDS011;1255;48.716;9.124;2022-12-07T01:35:54;6.75;;;4.78;;
2488;SDS011;1255;48.716;9.124;2022-12-07T01:38:27;7.43;;;4.68;;
2488;SDS011;1255;48.716;9.124;2022-12-07T01:40:55;5.57;;;4.60;;
2488;SDS011;1255;48.716;9.124;2022-12-07T01:43:22;5.20;;;3.90;;
2488;SDS011;1255;48.716;9.124;2022-12-07T01:45:51;5.20;;;4.63;;
2488;SDS011;1255;48.716;9.124;2022-12-07T01:48:19;5.00;;;4.00;;
2488;SDS011;1255;48.716;9.124;2022-12-07T01:50:49;6.50;;;4.50;;
2488;SDS011;1255;48.716;9.124;2022-12-07T01:53:18;7.30;;;4.85;;
2488;SDS011;1255;48.716;9.124;2022-12-07T01:55:48;6.38;;;5.28;;
2488;SDS011;1255;48.716;9.124;2022-12-07T01:58:18;6.88;;;4.65;;
2488;SDS011;1255;48.716;9.124;2022-12-07T02:00:46;6.30;;;4.70;;
2488;SDS011;1255;48.716;9.124;2022-12-07T02:03:15;6.75;;;4.80;;
2488;SDS011;1255;48.716;9.124;2022-12-07T02:05:45;6.20;;;4.50;;
2488;SDS011;1255;48.716;9.124;2022-12-07T02:08:14;7.55;;;4.53;;
2488;SDS011;1255;48.716;9.124;2022-12-07T02:10:42;8.57;;;5.68;;
2488;SDS011;1255;48.716;9.124;2022-12-07T02:13:11;6.63;;;4.53;;
2488;SDS011;1255;48.716;9.124;2022-12-07T02:15:45;6.53;;;4.25;;
2488;SDS011;1255;48.716;9.124;2022-12-07T02:18:38;9.13;;;5.45;;
2488;SDS011;1255;48.716;9.124;2022-12-07T02:21:14;8.45;;;4.93;;
2488;SDS011;1255;48.716;9.124;2022-12-07T02:26:47;5.40;;;4.30;;
2488;SDS011;1255;48.716;9.124;2022-12-07T02:29:36;6.80;;;5.20;;
2488;SDS011;1255;48.716;9.124;2022-12-07T02:32:08;8.25;;;4.30;;
2488;SDS011;1255;48.716;9.124;2022-12-07T02:34:43;5.65;;;4.43;;
2488;SDS011;1255;48.716;9.124;2022-12-07T02:37:18;6.45;;;4.40;;
2488;SDS011;1255;48.716;9.124;2022-12-07T02:39:55;6.97;;;4.95;;
2488;SDS011;1255;48.716;9.124;2022-12-07T02:42:28;11.00;;;5.35;;
2488;SDS011;1255;48.716;9.124;2022-12-07T02:45:01;7.15;;;4.15;;
2488;SDS011;1255;48.716;9.124;2022-12-07T02:47:30;4.82;;;4.35;;
2488;SDS011;1255;48.716;9.124;2022-12-07T02:50:00;5.90;;;4.97;;
2488;SDS011;1255;48.716;9.124;2022-12-07T02:52:29;7.88;;;4.78;;
2488;SDS011;1255;48.716;9.124;2022-12-07T02:54:56;7.47;;;4.90;;
2488;SDS011;1255;48.716;9.124;2022-12-07T02:57:27;6.65;;;4.88;;
2488;SDS011;1255;48.716;9.124;2022-12-07T03:00:07;6.20;;;4.45;;
2488;SDS011;1255;48.716;9.124;2022-12-07T03:02:36;8.20;;;4.57;;
2488;SDS011;1255;48.716;9.124;2022-12-07T03:05:13;7.57;;;5.47;;
2488;SDS011;1255;48.716;9.124;2022-12-07T03:07:49;7.47;;;5.05;;
2488;SDS011;1255;48.716;9.124;2022-12-07T03:10:23;7.63;;;4.90;;
2488;SDS011;1255;48.716;9.124;2022-12-07T03:12:56;8.00;;;5.22;;
2488;SDS011;1255;48.716;9.124;2022-12-07T03:15:31;7.80;;;4.70;;
2488;SDS011;1255;48.716;9.124;2022-12-07T03:18:01;7.70;;;5.10;;
2488;SDS011;1255;48.716;9.124;2022-12-07T03:20:30;7.95;;;5.32;;
2488;SDS011;1255;48.716;9.124;2022-12-07T03:23:00;6.85;;;5.00;;
2488;SDS011;1255;48.716;9.124;2022-12-07T03:25:30;5.93;;;4.60;;
2488;SDS011;1255;48.716;9.124;2022-12-07T03:28:01;6.25;;;4.95;;
2488;SDS011;1255;48.716;9.124;2022-12-07T03:30:32;6.95;;;5.00;;
2488;SDS011;1255;48.716;9.124;2022-12-07T03:33:04;6.32;;;4.63;;
2488;SDS011;1255;48.716;9.124;2022-12-07T03:35:36;6.78;;;4.28;;
2488;SDS011;1255;48.716;9.124;2022-12-07T03:38:08;5.82;;;4.55;;
2488;SDS011;1255;48.716;9.124;2022-12-07T03:40:44;6.60;;;4.63;;
2488;SDS011;1255;48.716;9.124;2022-12-07T03:43:16;5.80;;;5.22;;
2488;SDS011;1255;48.716;9.124;2022-12-07T03:45:47;7.15;;;4.60;;
2488;SDS011;1255;48.716;9.124;2022-12-07T03:48:22;7.00;;;4.43;;
2488;SDS011;1255;48.716;9.124;2022-12-07T03:50:59;9.00;;;4.70;;
2488;SDS011;1255;48.716;9.124;2022-12-07T03:53:31;4.93;;;4.10;;
2488;SDS011;1255;48.716;9.124;2022-12-07T03:56:03;6.13;;;4.90;;
2488;SDS011;1255;48.716;9.124;2022-12-07T03:58:31;7.22;;;5.30;;
2488;SDS011;1255;48.716;9.124;2022-12-07T04:01:00;6.13;;;4.85;;
2488;SDS011;1255;48.716;9.124;2022-12-07T04:03:27;5.82;;;4.43;;
2488;SDS011;1255;48.716;9.124;2022-12-07T04:05:54;5.85;;;4.65;;
2488;SDS011;1255;48.716;9.124;2022-12-07T04:08:21;7.55;;;5.50;;
2488;SDS011;1255;48.716;9.124;2022-12-07T04:10:48;6.72;;;4.78;;
2488;SDS011;1255;48.716;9.124;2022-12-07T04:13:15;5.93;;;5.18;;
2488;SDS011;1255;48.716;9.124;2022-12-07T04:15:42;7.10;;;5.15;;
2488;SDS011;1255;48.716;9.124;2022-12-07T04:18:10;5.78;;;4.40;;
2488;SDS011;1255;48.716;9.124;2022-12-07T04:20:37;5.40;;;4.20;;
2488;SDS011;1255;48.716;9.124;2022-12-07T04:23:04;5.70;;;4.28;;
2488;SDS011;1255;48.716;9.124;2022-12-07T04:25:30;5.90;;;3.92;;
2488;SDS011;1255;48.716;9.124;2022-12-07T04:27:57;6.25;;;4.20;;
2488;SDS011;1255;48.716;9.124;2022-12-07T04:30:24;6.05;;;4.30;;
2488;SDS011;1255;48.716;9.124;2022-12-07T04:32:51;6.15;;;4.57;;
2488;SDS011;1255;48.716;9.124;2022-12-07T04:35:19;7.45;;;4.35;;
2488;SDS011;1255;48.716;9.124;2022-12-07T04:37:46;8.27;;;4.50;;
2488;SDS011;1255;48.716;9.124;2022-12-07T04:40:13;6.28;;;4.35;;
2488;SDS011;1255;48.716;9.124;2022-12-07T04:42:40;6.03;;;4.40;;
2488;SDS011;1255;48.716;9.124;2022-12-07T04:45:12;5.55;;;4.47;;
2488;SDS011;1255;48.716;9.124;2022-12-07T04:47:39;5.72;;;4.00;;
2488;SDS011;1255;48.716;9.124;2022-12-07T04:50:06;7.43;;;4.85;;
2488;SDS011;1255;48.716;9.124;2022-12-07T04:52:39;6.10;;;4.25;;
2488;SDS011;1255;48.716;9.124;2022-12-07T04:55:08;5.13;;;4.60;;
2488;SDS011;1255;48.716;9.124;2022-12-07T04:57:35;3.85;;;2.65;;
2488;SDS011;1255;48.716;9.124;2022-12-07T05:00:02;4.07;;;3.53;;
2488;SDS011;1255;48.716;9.124;2022-12-07T05:02:29;4.60;;;3.05;;
2488;SDS011;1255;48.716;9.124;2022-12-07T05:04:56;6.75;;;3.05;;
2488;SDS011;1255;48.716;9.124;2022-12-07T05:07:23;4.60;;;3.28;;
2488;SDS011;1255;48.716;9.124;2022-12-07T05:09:51;5.30;;;3.80;;
2488;SDS011;1255;48.716;9.124;2022-12-07T05:12:18;3.80;;;2.85;;
2488;SDS011;1255;48.716;9.124;2022-12-07T05:14:44;3.25;;;2.40;;
2488;SDS011;1255;48.716;9.124;2022-12-07T05:17:11;3.55;;;2.95;;
2488;SDS011;1255;48.716;9.124;2022-12-07T05:19:38;3.50;;;2.70;;
2488;SDS011;1255;48.716;9.124;2022-12-07T05:22:05;2.90;;;2.58;;
2488;SDS011;1255;48.716;9.124;2022-12-07T05:24:32;4.55;;;3.25;;
2488;SDS011;1255;48.716;9.124;2022-12-07T05:27:00;4.03;;;2.97;;
2488;SDS011;1255;48.716;9.124;2022-12-07T05:29:26;3.72;;;2.88;;
2488;SDS011;1255;48.716;9.124;2022-12-07T05:31:53;4.00;;;2.85;;
2488;SDS011;1255;48.716;9.124;2022-12-07T05:34:20;4.85;;;3.30;;
2488;SDS011;1255;48.716;9.124;2022-12-07T05:36:47;4.90;;;3.25;;
2488;SDS011;1255;48.716;9.124;2022-12-07T05:39:14;6.70;;;2.78;;
2488;SDS011;1255;48.716;9.124;2022-12-07T05:41:40;4.78;;;3.08;;
2488;SDS011;1255;48.716;9.124;2022-12-07T05:44:23;4.05;;;3.38;;
2488;SDS011;1255;48.716;9.124;2022-12-07T05:46:49;5.50;;;3.33;;
2488;SDS011;1255;48.716;9.124;2022-12-07T05:49:16;3.83;;;3.40;;
2488;SDS011;1255;48.716;9.124;2022-12-07T05:51:43;3.85;;;2.42;;
2488;SDS011;1255;48.716;9.124;2022-12-07T05:54:10;4.60;;;3.20;;
2488;SDS011;1255;48.716;9.124;2022-12-07T05:56:36;4.72;;;3.35;;
2488;SDS011;1255;48.716;9.124;2022-12-07T05:59:03;3.47;;;3.05;;
2488;SDS011;1255;48.716;9.124;2022-12-07T06:01:50;4.97;;;3.72;;
2488;SDS011;1255;48.716;9.124;2022-12-07T06:04:18;3.25;;;2.75;;
2488;SDS011;1255;48.716;9.124;2022-12-07T06:06:45;3.65;;;3.25;;
2488;SDS011;1255;48.716;9.124;2022-12-07T06:09:12;3.70;;;2.88;;
2488;SDS011;1255;48.716;9.124;2022-12-07T06:11:39;4.68;;;3.00;;
2488;SDS011;1255;48.716;9.124;2022-12-07T06:14:24;4.13;;;3.08;;
2488;SDS011;1255;48.716;9.124;2022-12-07T06:16:52;3.85;;;3.35;;
2488;SDS011;1255;48.716;9.124;2022-12-07T06:19:19;4.40;;;3.15;;
2488;SDS011;1255;48.716;9.124;2022-12-07T06:21:46;6.47;;;5.03;;
2488;SDS011;1255;48.716;9.124;2022-12-07T06:24:14;4.80;;;3.60;;
2488;SDS011;1255;48.716;9.124;2022-12-07T06:26:41;6.07;;;3.67;;
2488;SDS011;1255;48.716;9.124;2022-12-07T06:29:08;3.40;;;3.10;;
2488;SDS011;1255;48.716;9.124;2022-12-07T06:31:35;4.40;;;3.17;;
2488;SDS011;1255;48.716;9.124;2022-12-07T06:34:05;3.40;;;2.72;;
2488;SDS011;1255;48.716;9.124;2022-12-07T06:36:33;8.40;;;3.78;;
2488;SDS011;1255;48.716;9.124;2022-12-07T06:39:00;5.10;;;3.13;;
2488;SDS011;1255;48.716;9.124;2022-12-07T06:41:26;5.30;;;3.42;;
2488;SDS011;1255;48.716;9.124;2022-12-07T06:43:53;6.28;;;4.15;;
2488;SDS011;1255;48.716;9.124;2022-12-07T06:46:21;5.68;;;4.60;;
2488;SDS011;1255;48.716;9.124;2022-12-07T06:48:47;7.15;;;4.68;;
2488;SDS011;1255;48.716;9.124;2022-12-07T06:51:15;4.15;;;3.00;;
2488;SDS011;1255;48.716;9.124;2022-12-07T06:53:42;3.15;;;2.45;;
2488;SDS011;1255;48.716;9.124;2022-12-07T06:56:09;6.00;;;3.83;;
2488;SDS011;1255;48.716;9.124;2022-12-07T06:58:36;4.53;;;2.50;;
2488;SDS011;1255;48.716;9.124;2022-12-07T07:01:07;5.80;;;3.67;;
2488;SDS011;1255;48.716;9.124;2022-12-07T07:03:35;7.20;;;3.80;;
2488;SDS011;1255;48.716;9.124;2022-12-07T07:06:02;4.32;;;3.67;;
2488;SDS011;1255;48.716;9.124;2022-12-07T07:08:30;5.47;;;3.65;;
2488;SDS011;1255;48.716;9.124;2022-12-07T07:10:57;6.32;;;3.25;;
2488;SDS011;1255;48.716;9.124;2022-12-07T07:13:24;3.97;;;3.58;;
2488;SDS011;1255;48.716;9.124;2022-12-07T07:15:50;5.80;;;3.75;;
2488;SDS011;1255;48.716;9.124;2022-12-07T07:18:17;6.15;;;4.25;;
2488;SDS011;1255;48.716;9.124;2022-12-07T07:20:44;5.50;;;3.45;;
2488;SDS011;1255;48.716;9.124;2022-12-07T07:23:11;4.75;;;3.58;;
2488;SDS011;1255;48.716;9.124;2022-12-07T07:25:39;3.78;;;3.33;;
2488;SDS011;1255;48.716;9.124;2022-12-07T07:28:06;4.05;;;3.65;;
2488;SDS011;1255;48.716;9.124;2022-12-07T07:30:33;6.43;;;3.92;;
2488;SDS011;1255;48.716;9.124;2022-12-07T07:33:00;6.38;;;4.65;;
2488;SDS011;1255;48.716;9.124;2022-12-07T07:35:28;4.50;;;4.07;;
2488;SDS011;1255;48.716;9.124;2022-12-07T07:37:56;5.63;;;3.45;;
2488;SDS011;1255;48.716;9.124;2022-12-07T07:40:23;5.45;;;3.97;;
2488;SDS011;1255;48.716;9.124;2022-12-07T07:42:52;5.03;;;4.25;;
2488;SDS011;1255;48.716;9.124;2022-12-07T07:45:20;5.20;;;4.15;;
2488;SDS011;1255;48.716;9.124;2022-12-07T07:47:48;5.00;;;4.03;;
2488;SDS011;1255;48.716;9.124;2022-12-07T07:50:16;5.93;;;3.95;;
2488;SDS011;1255;48.716;9.124;2022-12-07T07:52:43;5.13;;;4.63;;
2488;SDS011;1255;48.716;9.124;2022-12-07T07:55:10;6.18;;;3.83;;
2488;SDS011;1255;48.716;9.124;2022-12-07T07:57:38;5.05;;;3.80;;
2488;SDS011;1255;48.716;9.124;2022-12-07T08:00:08;10.50;;;7.20;;
2488;SDS011;1255;48.716;9.124;2022-12-07T08:02:37;6.40;;;4.00;;
2488;SDS011;1255;48.716;9.124;2022-12-07T08:05:04;4.93;;;3.30;;
2488;SDS011;1255;48.716;9.124;2022-12-07T08:07:32;5.35;;;3.60;;
2488;SDS011;1255;48.716;9.124;2022-12-07T08:09:59;5.95;;;3.72;;
2488;SDS011;1255;48.716;9.124;2022-12-07T08:12:25;5.18;;;3.67;;
2488;SDS011;1255;48.716;9.124;2022-12-07T08:14:52;3.85;;;3.40;;
2488;SDS011;1255;48.716;9.124;2022-12-07T08:17:20;5.75;;;3.88;;
2488;SDS011;1255;48.716;9.124;2022-12-07T08:19:47;6.82;;;3.85;;
2488;SDS011;1255;48.716;9.124;2022-12-07T08:22:13;5.32;;;4.18;;
2488;SDS011;1255;48.716;9.124;2022-12-07T08:24:40;7.80;;;5.40;;
2488;SDS011;1255;48.716;9.124;2022-12-07T08:27:07;5.13;;;4.47;;
2488;SDS011;1255;48.716;9.124;2022-12-07T08:29:34;5.00;;;3.88;;
2488;SDS011;1255;48.716;9.124;2022-12-07T08:32:00;4.75;;;3.63;;
2488;SDS011;1255;48.716;9.124;2022-12-07T08:34:28;6.57;;;3.55;;
2488;SDS011;1255;48.716;9.124;2022-12-07T08:36:55;6.28;;;3.72;;
2488;SDS011;1255;48.716;9.124;2022-12-07T08:39:22;6.25;;;3.90;;
2488;SDS011;1255;48.716;9.124;2022-12-07T08:41:49;5.03;;;3.50;;
2488;SDS011;1255;48.716;9.124;2022-12-07T08:44:15;5.90;;;3.97;;
2488;SDS011;1255;48.716;9.124;2022-12-07T08:46:44;5.43;;;4.07;;
2488;SDS011;1255;48.716;9.124;2022-12-07T08:49:13;5.82;;;3.20;;
2488;SDS011;1255;48.716;9.124;2022-12-07T08:51:44;4.63;;;3.92;;
2488;SDS011;1255;48.716;9.124;2022-12-07T08:54:11;5.28;;;3.50;;
2488;SDS011;1255;48.716;9.124;2022-12-07T08:56:41;3.55;;;2.95;;
2488;SDS011;1255;48.716;9.124;2022-12-07T08:59:08;6.32;;;3.58;;
2488;SDS011;1255;48.716;9.124;2022-12-07T09:01:36;3.40;;;3.10;;
2488;SDS011;1255;48.716;9.124;2022-12-07T09:04:03;5.65;;;4.30;;
2488;SDS011;1255;48.716;9.124;2022-12-07T09:06:30;6.82;;;4.32;;
2488;SDS011;1255;48.716;9.124;2022-12-07T09:08:58;5.45;;;3.35;;
2488;SDS011;1255;48.716;9.124;2022-12-07T09:11:27;3.70;;;3.30;;
2488;SDS011;1255;48.716;9.124;2022-12-07T09:13:54;8.02;;;3.67;;
2488;SDS011;1255;48.716;9.124;2022-12-07T09:16:21;4.43;;;2.90;;
2488;SDS011;1255;48.716;9.124;2022-12-07T09:18:48;5.95;;;3.25;;
2488;SDS011;1255;48.716;9.124;2022-12-07T09:21:14;5.47;;;3.65;;
2488;SDS011;1255;48.716;9.124;2022-12-07T09:23:41;4.45;;;3.25;;
2488;SDS011;1255;48.716;9.124;2022-12-07T09:26:10;4.00;;;3.40;;
2488;SDS011;1255;48.716;9.124;2022-12-07T09:28:37;4.20;;;3.13;;
2488;SDS011;1255;48.716;9.124;2022-12-07T09:31:04;3.35;;;3.05;;
2488;SDS011;1255;48.716;9.124;2022-12-07T09:33:31;4.70;;;3.35;;
2488;SDS011;1255;48.716;9.124;2022-12-07T09:35:58;3.55;;;2.70;;
2488;SDS011;1255;48.716;9.124;2022-12-07T09:38:24;4.25;;;2.97;;
2488;SDS011;1255;48.716;9.124;2022-12-07T09:40:52;3.40;;;3.10;;
2488;SDS011;1255;48.716;9.124;2022-12-07T09:43:22;3.83;;;3.10;;
2488;SDS011;1255;48.716;9.124;2022-12-07T09:45:52;4.00;;;2.72;;
2488;SDS011;1255;48.716;9.124;2022-12-07T09:48:21;5.72;;;3.38;;
2488;SDS011;1255;48.716;9.124;2022-12-07T09:50:51;4.28;;;3.13;;
2488;SDS011;1255;48.716;9.124;2022-12-07T09:53:22;3.90;;;3.00;;
2488;SDS011;1255;48.716;9.124;2022-12-07T09:55:51;3.63;;;2.75;;
2488;SDS011;1255;48.716;9.124;2022-12-07T09:58:20;5.15;;;3.70;;
2488;SDS011;1255;48.716;9.124;2022-12-07T10:00:52;3.03;;;2.55;;
2488;SDS011;1255;48.716;9.124;2022-12-07T10:03:21;3.17;;;2.75;;
2488;SDS011;1255;48.716;9.124;2022-12-07T10:05:49;4.10;;;2.80;;
2488;SDS011;1255;48.716;9.124;2022-12-07T10:08:17;4.47;;;3.20;;
2488;SDS011;1255;48.716;9.124;2022-12-07T10:10:45;4.00;;;2.80;;
2488;SDS011;1255;48.716;9.124;2022-12-07T10:13:18;3.28;;;2.78;;
2488;SDS011;1255;48.716;9.124;2022-12-07T10:15:49;3.03;;;2.35;;
2488;SDS011;1255;48.716;9.124;2022-12-07T10:18:19;4.63;;;3.13;;
2488;SDS011;1255;48.716;9.124;2022-12-07T10:20:59;2.83;;;2.55;;
2488;SDS011;1255;48.716;9.124;2022-12-07T10:23:27;4.80;;;2.95;;
2488;SDS011;1255;48.716;9.124;2022-12-07T10:25:54;7.63;;;2.80;;
2488;SDS011;1255;48.716;9.124;2022-12-07T10:28:21;2.85;;;2.15;;
2488;SDS011;1255;48.716;9.124;2022-12-07T10:30:53;2.80;;;2.40;;
2488;SDS011;1255;48.716;9.124;2022-12-07T10:33:28;3.58;;;2.25;;
2488;SDS011;1255;48.716;9.124;2022-12-07T10:35:56;2.80;;;2.10;;
2488;SDS011;1255;48.716;9.124;2022-12-07T10:38:24;3.88;;;2.65;;
2488;SDS011;1255;48.716;9.124;2022-12-07T10:41:02;5.50;;;3.20;;
2488;SDS011;1255;48.716;9.124;2022-12-07T10:43:31;2.97;;;2.40;;
2488;SDS011;1255;48.716;9.124;2022-12-07T10:46:06;5.68;;;2.30;;
2488;SDS011;1255;48.716;9.124;2022-12-07T10:48:50;5.68;;;2.92;;
2488;SDS011;1255;48.716;9.124;2022-12-07T10:51:26;4.50;;;3.10;;
2488;SDS011;1255;48.716;9.124;2022-12-07T10:54:04;2.53;;;2.30;;
2488;SDS011;1255;48.716;9.124;2022-12-07T10:56:45;3.80;;;2.55;;
2488;SDS011;1255;48.716;9.124;2022-12-07T10:59:42;5.15;;;2.95;;
2488;SDS011;1255;48.716;9.124;2022-12-07T11:02:24;4.45;;;2.50;;
2488;SDS011;1255;48.716;9.124;2022-12-07T11:05:01;4.30;;;2.65;;
2488;SDS011;1255;48.716;9.124;2022-12-07T11:07:38;2.80;;;2.20;;
2488;SDS011;1255;48.716;9.124;2022-12-07T11:10:13;2.78;;;2.58;;
2488;SDS011;1255;48.716;9.124;2022-12-07T11:12:52;3.15;;;2.67;;
2488;SDS011;1255;48.716;9.124;2022-12-07T11:15:32;2.80;;;2.28;;
2488;SDS011;1255;48.716;9.124;2022-12-07T11:18:14;3.22;;;2.45;;
2488;SDS011;1255;48.716;9.124;2022-12-07T11:20:50;2.78;;;2.22;;
2488;SDS011;1255;48.716;9.124;2022-12-07T11:23:25;3.38;;;2.50;;
2488;SDS011;1255;48.716;9.124;2022-12-07T11:26:03;3.53;;;2.75;;
2488;SDS011;1255;48.716;9.124;2022-12-07T11:28:41;3.78;;;2.80;;
2488;SDS011;1255;48.716;9.124;2022-12-07T11:31:38;4.07;;;2.55;;
2488;SDS011;1255;48.716;9.124;2022-12-07T11:34:21;3.90;;;2.40;;
2488;SDS011;1255;48.716;9.124;2022-12-07T11:36:54;4.53;;;2.70;;
2488;SDS011;1255;48.716;9.124;2022-12-07T11:39:24;3.25;;;2.40;;
2488;SDS011;1255;48.716;9.124;2022-12-07T11:41:56;3.28;;;2.40;;
2488;SDS011;1255;48.716;9.124;2022-12-07T11:44:31;3.03;;;2.50;;
2488;SDS011;1255;48.716;9.124;2022-12-07T11:47:05;3.05;;;2.60;;
2488;SDS011;1255;48.716;9.124;2022-12-07T11:49:40;4.82;;;2.72;;
2488;SDS011;1255;48.716;9.124;2022-12-07T11:52:12;3.25;;;2.28;;
2488;SDS011;1255;48.716;9.124;2022-12-07T11:54:45;2.65;;;2.28;;
2488;SDS011;1255;48.716;9.124;2022-12-07T11:57:14;2.92;;;2.10;;
2488;SDS011;1255;48.716;9.124;2022-12-07T11:59:45;2.78;;;2.40;;
2488;SDS011;1255;48.716;9.124;2022-12-07T12:02:16;2.30;;;2.00;;
2488;SDS011;1255;48.716;9.124;2022-12-07T12:04:51;3.40;;;2.40;;
2488;SDS011;1255;48.716;9.124;2022-12-07T12:07:22;3.60;;;2.38;;
2488;SDS011;1255;48.716;9.124;2022-12-07T12:09:52;3.90;;;2.70;;
2488;SDS011;1255;48.716;9.124;2022-12-07T12:12:41;2.90;;;2.22;;
2488;SDS011;1255;48.716;9.124;2022-12-07T12:15:22;6.70;;;2.92;;
2488;SDS011;1255;48.716;9.124;2022-12-07T12:18:03;13.00;;;7.75;;
2488;SDS011;1255;48.716;9.124;2022-12-07T12:20:44;7.65;;;5.47;;
2488;SDS011;1255;48.716;9.124;2022-12-07T12:23:16;3.10;;;2.45;;
2488;SDS011;1255;48.716;9.124;2022-12-07T12:25:46;2.97;;;2.17;;
2488;SDS011;1255;48.716;9.124;2022-12-07T12:28:20;4.32;;;2.78;;
2488;SDS011;1255;48.716;9.124;2022-12-07T12:33:26;3.35;;;2.70;;
2488;SDS011;1255;48.716;9.124;2022-12-07T12:36:43;2.88;;;2.47;;
2488;SDS011;1255;48.716;9.124;2022-12-07T12:39:29;3.95;;;2.60;;
2488;SDS011;1255;48.716;9.124;2022-12-07T12:42:01;3.45;;;1.70;;
2488;SDS011;1255;48.716;9.124;2022-12-07T12:45:16;3.17;;;2.15;;
2488;SDS011;1255;48.716;9.124;2022-12-07T12:48:42;3.22;;;1.60;;
2488;SDS011;1255;48.716;9.124;2022-12-07T12:51:46;2.15;;;1.88;;
2488;SDS011;1255;48.716;9.124;2022-12-07T13:01:53;3.78;;;3.25;;
2488;SDS011;1255;48.716;9.124;2022-12-07T13:11:34;4.20;;;2.67;;
2488;SDS011;1255;48.716;9.124;2022-12-07T13:17:58;3.88;;;3.17;;
2488;SDS011;1255;48.716;9.124;2022-12-07T13:23:20;4.75;;;2.58;;
2488;SDS011;1255;48.716;9.124;2022-12-07T13:28:42;3.63;;;3.15;;
2488;SDS011;1255;48.716;9.124;2022-12-07T13:31:13;4.00;;;2.60;;
2488;SDS011;1255;48.716;9.124;2022-12-07T13:33:56;3.83;;;2.20;;
2488;SDS011;1255;48.716;9.124;2022-12-07T13:36:24;2.33;;;2.10;;
2488;SDS011;1255;48.716;9.124;2022-12-07T13:38:55;5.53;;;2.60;;
2488;SDS011;1255;48.716;9.124;2022-12-07T13:41:23;3.00;;;2.42;;
2488;SDS011;1255;48.716;9.124;2022-12-07T13:43:53;3.33;;;2.25;;
2488;SDS011;1255;48.716;9.124;2022-12-07T13:46:29;4.45;;;3.00;;
2488;SDS011;1255;48.716;9.124;2022-12-07T13:49:15;3.55;;;2.53;;
2488;SDS011;1255;48.716;9.124;2022-12-07T13:51:43;2.70;;;2.25;;
2488;SDS011;1255;48.716;9.124;2022-12-07T13:54:12;2.55;;;1.92;;
2488;SDS011;1255;48.716;9.124;2022-12-07T13:56:40;3.58;;;2.40;;
2488;SDS011;1255;48.716;9.124;2022-12-07T13:59:10;3.45;;;2.00;;
2488;SDS011;1255;48.716;9.124;2022-12-07T14:01:41;3.38;;;1.70;;
2488;SDS011;1255;48.716;9.124;2022-12-07T14:06:59;2.10;;;1.90;;
2488;SDS011;1255;48.716;9.124;2022-12-07T14:09:28;2.28;;;2.08;;
2488;SDS011;1255;48.716;9.124;2022-12-07T14:11:56;2.25;;;2.03;;
2488;SDS011;1255;48.716;9.124;2022-12-07T14:14:25;2.50;;;2.10;;
2488;SDS011;1255;48.716;9.124;2022-12-07T14:16:55;2.95;;;2.30;;
2488;SDS011;1255;48.716;9.124;2022-12-07T14:19:40;3.13;;;2.10;;
2488;SDS011;1255;48.716;9.124;2022-12-07T14:22:28;1.88;;;1.77;;
2488;SDS011;1255;48.716;9.124;2022-12-07T14:27:53;2.20;;;1.70;;
2488;SDS011;1255;48.716;9.124;2022-12-07T14:30:23;2.20;;;1.75;;
2488;SDS011;1255;48.716;9.124;2022-12-07T14:32:52;4.75;;;2.83;;
2488;SDS011;1255;48.716;9.124;2022-12-07T14:35:20;3.72;;;2.20;;
2488;SDS011;1255;48.716;9.124;2022-12-07T14:37:48;3.15;;;2.08;;
2488;SDS011;1255;48.716;9.124;2022-12-07T14:40:16;3.03;;;1.85;;
2488;SDS011;1255;48.716;9.124;2022-12-07T14:42:46;4.15;;;2.88;;
2488;SDS011;1255;48.716;9.124;2022-12-07T14:45:17;2.83;;;2.30;;
2488;SDS011;1255;48.716;9.124;2022-12-07T14:47:45;2.08;;;1.85;;
2488;SDS011;1255;48.716;9.124;2022-12-07T14:50:13;2.97;;;2.42;;
2488;SDS011;1255;48.716;9.124;2022-12-07T14:52:41;3.05;;;2.13;;
2488;SDS011;1255;48.716;9.124;2022-12-07T14:55:12;3.50;;;2.25;;
2488;SDS011;1255;48.716;9.124;2022-12-07T14:57:41;2.53;;;2.30;;
2488;SDS011;1255;48.716;9.124;2022-12-07T15:00:10;3.17;;;2.58;;
2488;SDS011;1255;48.716;9.124;2022-12-07T15:02:40;3.20;;;2.67;;
2488;SDS011;1255;48.716;9.124;2022-12-07T15:05:07;3.00;;;2.70;;
2488;SDS011;1255;48.716;9.124;2022-12-07T15:07:34;2.95;;;2.30;;
2488;SDS011;1255;48.716;9.124;2022-12-07T15:10:01;2.63;;;2.08;;
2488;SDS011;1255;48.716;9.124;2022-12-07T15:12:28;4.50;;;2.53;;
2488;SDS011;1255;48.716;9.124;2022-12-07T15:14:54;3.58;;;2.50;;
2488;SDS011;1255;48.716;9.124;2022-12-07T15:17:22;4.57;;;2.80;;
2488;SDS011;1255;48.716;9.124;2022-12-07T15:19:49;4.45;;;3.28;;
2488;SDS011;1255;48.716;9.124;2022-12-07T15:22:16;2.92;;;2.60;;
2488;SDS011;1255;48.716;9.124;2022-12-07T15:24:43;3.65;;;3.05;;
2488;SDS011;1255;48.716;9.124;2022-12-07T15:27:09;2.90;;;2.50;;
2488;SDS011;1255;48.716;9.124;2022-12-07T15:29:36;3.00;;;2.70;;
2488;SDS011;1255;48.716;9.124;2022-12-07T15:32:03;4.13;;;2.85;;
2488;SDS011;1255;48.716;9.124;2022-12-07T15:34:31;5.07;;;4.10;;
2488;SDS011;1255;48.716;9.124;2022-12-07T15:36:59;3.90;;;2.70;;
2488;SDS011;1255;48.716;9.124;2022-12-07T15:41:53;4.43;;;3.22;;
2488;SDS011;1255;48.716;9.124;2022-12-07T15:44:20;4.20;;;3.80;;
2488;SDS011;1255;48.716;9.124;2022-12-07T15:47:04;3.63;;;3.10;;
2488;SDS011;1255;48.716;9.124;2022-12-07T15:49:33;3.75;;;3.35;;
2488;SDS011;1255;48.716;9.124;2022-12-07T15:51:59;5.53;;;3.90;;
2488;SDS011;1255;48.716;9.124;2022-12-07T15:54:27;5.60;;;3.50;;
2488;SDS011;1255;48.716;9.124;2022-12-07T15:56:54;3.17;;;2.72;;
2488;SDS011;1255;48.716;9.124;2022-12-07T15:59:22;3.40;;;3.00;;
2488;SDS011;1255;48.716;9.124;2022-12-07T16:01:49;5.20;;;4.30;;
2488;SDS011;1255;48.716;9.124;2022-12-07T16:04:16;5.30;;;3.88;;
2488;SDS011;1255;48.716;9.124;2022-12-07T16:06:44;3.08;;;2.85;;
2488;SDS011;1255;48.716;9.124;2022-12-07T16:09:11;5.97;;;3.90;;
2488;SDS011;1255;48.716;9.124;2022-12-07T16:11:38;5.93;;;3.95;;
2488;SDS011;1255;48.716;9.124;2022-12-07T16:14:05;4.93;;;3.55;;